Time;durP1;ratioP1;P1;durP2;ratioP2;P2;SDS_P1;SDS_P2;PMS_P1;PMS_P2;Temp;Humidity;BMP_temperature;BMP_pressure;BME280_temperature;BME280_humidity;BME280_pressure;Samples;Min_cycle;Max_cycle;Signal;HPM_P1;HPM_P2
2021/09/12 00:01:10;;;;;;;7.15;4.13;;;;;;;15.63;100.00;96915.59;5015121;28;20076;-65
2021/09/12 00:03:35;;;;;;;9.40;4.90;;;;;;;15.60;100.00;96918.34;5018772;28;20164;-65
2021/09/12 00:06:01;;;;;;;5.35;3.50;;;;;;;15.58;100.00;96912.44;5022458;28;20462;-64
2021/09/12 00:08:26;;;;;;;8.20;4.53;;;;;;;15.63;100.00;96920.34;5017154;28;20136;-65
2021/09/12 00:10:52;;;;;;;12.38;4.65;;;;;;;15.53;100.00;96916.38;5021251;28;20060;-64
2021/09/12 00:13:17;;;;;;;6.25;3.80;;;;;;;15.36;100.00;96915.19;5015127;28;20141;-66
2021/09/12 00:15:43;;;;;;;9.85;4.10;;;;;;;15.21;100.00;96917.13;5022198;28;20037;-66
2021/09/12 00:18:08;;;;;;;7.38;4.57;;;;;;;15.16;100.00;96905.69;5034040;28;20056;-64
2021/09/12 00:20:34;;;;;;;5.10;3.17;;;;;;;15.15;100.00;96907.66;5038975;28;20101;-65
2021/09/12 00:22:59;;;;;;;7.00;4.35;;;;;;;15.18;100.00;96915.16;5020697;28;20095;-65
2021/09/12 00:25:24;;;;;;;5.97;3.53;;;;;;;15.21;100.00;96911.59;5010671;28;20064;-64
2021/09/12 00:27:50;;;;;;;6.80;4.15;;;;;;;15.24;100.00;96910.81;5020769;28;20140;-64
2021/09/12 00:30:16;;;;;;;5.25;3.97;;;;;;;15.21;100.00;96919.09;5013045;28;20402;-64
2021/09/12 00:32:41;;;;;;;7.50;3.92;;;;;;;15.20;100.00;96912.03;5019226;28;20488;-64
2021/09/12 00:35:09;;;;;;;7.15;3.95;;;;;;;15.01;100.00;96913.94;5013681;28;20041;-63
2021/09/12 00:37:36;;;;;;;5.55;4.13;;;;;;;14.96;100.00;96916.28;5017852;28;20407;-65
2021/09/12 00:40:01;;;;;;;6.78;3.67;;;;;;;14.97;100.00;96913.16;5021091;28;20041;-64
2021/09/12 00:42:26;;;;;;;5.75;3.58;;;;;;;14.94;100.00;96910.38;5009833;28;20052;-62
2021/09/12 00:44:52;;;;;;;6.50;3.65;;;;;;;14.97;100.00;96912.38;5020765;28;20051;-63
2021/09/12 00:47:17;;;;;;;6.30;3.60;;;;;;;14.96;100.00;96902.50;5013610;28;20038;-63
2021/09/12 00:49:43;;;;;;;5.57;3.90;;;;;;;14.89;100.00;96901.31;5019882;28;20048;-65
2021/09/12 00:52:11;;;;;;;5.57;3.45;;;;;;;14.71;100.00;96903.22;5015445;28;20046;-64
2021/09/12 00:54:37;;;;;;;6.45;3.40;;;;;;;14.72;100.00;96902.03;5020600;28;20445;-63
2021/09/12 00:57:06;;;;;;;4.90;3.00;;;;;;;14.86;100.00;96899.34;5018076;28;20048;-62
2021/09/12 00:59:35;;;;;;;6.10;3.30;;;;;;;14.90;100.00;96905.63;5020164;28;20465;-63
2021/09/12 01:02:03;;;;;;;5.00;3.28;;;;;;;14.71;100.00;96904.03;5010208;28;20184;-63
2021/09/12 01:04:30;;;;;;;5.05;3.30;;;;;;;14.67;100.00;96911.47;5002622;28;20073;-62
2021/09/12 01:06:56;;;;;;;4.10;3.17;;;;;;;14.67;100.00;96911.47;5018732;28;20034;-63
2021/09/12 01:09:21;;;;;;;8.23;3.60;;;;;;;14.76;100.00;96893.78;4998223;28;20102;-62
2021/09/12 01:11:47;;;;;;;6.20;3.83;;;;;;;14.64;100.00;96897.66;5018342;28;20046;-64
2021/09/12 01:14:14;;;;;;;8.32;4.00;;;;;;;14.49;100.00;96891.28;5015551;28;20564;-63
2021/09/12 01:16:39;;;;;;;9.30;4.15;;;;;;;14.23;100.00;96892.38;5020638;28;20069;-62
2021/09/12 01:19:05;;;;;;;6.20;4.13;;;;;;;14.12;100.00;96895.06;5015063;28;20541;-62
2021/09/12 01:21:32;;;;;;;8.35;3.65;;;;;;;14.10;100.00;96906.47;5019874;28;20111;-63
2021/09/12 01:23:58;;;;;;;5.70;4.00;;;;;;;14.26;100.00;96899.84;5020592;28;20053;-63
2021/09/12 01:26:27;;;;;;;8.80;4.22;;;;;;;14.34;100.00;96898.72;5015641;28;20041;-63
2021/09/12 01:28:53;;;;;;;5.27;4.10;;;;;;;14.38;100.00;96890.47;5020003;28;20061;-63
2021/09/12 01:31:24;;;;;;;6.78;4.28;;;;;;;14.38;100.00;96884.97;5013005;28;20034;-62
2021/09/12 01:33:50;;;;;;;11.65;4.75;;;;;;;14.33;100.00;96883.34;5017809;28;20064;-65
2021/09/12 01:36:16;;;;;;;5.13;3.70;;;;;;;14.32;100.00;96879.03;5013655;28;20127;-65
2021/09/12 01:38:42;;;;;;;7.25;4.53;;;;;;;14.34;100.00;96891.22;5020494;28;20497;-65
2021/09/12 01:41:08;;;;;;;7.47;4.30;;;;;;;14.34;100.00;96882.97;5015037;28;20490;-64
2021/09/12 01:43:33;;;;;;;9.52;3.83;;;;;;;14.48;100.00;96879.50;5020432;28;20135;-63
2021/09/12 01:45:59;;;;;;;5.53;3.38;;;;;;;14.61;100.00;96882.72;5019297;28;20060;-65
2021/09/12 01:48:25;;;;;;;4.95;3.58;;;;;;;14.76;100.00;96883.53;5016287;28;20160;-65
2021/09/12 01:50:50;;;;;;;5.85;3.58;;;;;;;14.59;100.00;96876.81;5023665;28;20504;-63
2021/09/12 01:53:16;;;;;;;4.50;3.38;;;;;;;14.45;100.00;96868.44;5017758;28;20104;-64
2021/09/12 01:55:42;;;;;;;4.53;3.08;;;;;;;14.28;100.00;96872.72;5023025;28;20037;-65
2021/09/12 01:58:07;;;;;;;4.50;3.10;;;;;;;14.00;100.00;96873.34;5017025;28;20133;-64
2021/09/12 02:00:33;;;;;;;5.88;3.35;;;;;;;13.95;100.00;96880.81;5023815;28;20080;-64
2021/09/12 02:02:58;;;;;;;8.68;3.88;;;;;;;14.05;100.00;96865.50;5056509;28;20105;-65
2021/09/12 02:05:24;;;;;;;12.15;3.30;;;;;;;14.24;100.00;96872.72;5038155;28;20943;-64
2021/09/12 02:07:50;;;;;;;6.05;3.38;;;;;;;14.31;100.00;96877.44;5023615;28;20402;-63
2021/09/12 02:10:15;;;;;;;7.20;3.63;;;;;;;14.36;100.00;96879.81;5015652;28;20037;-66
2021/09/12 02:12:41;;;;;;;7.18;3.70;;;;;;;14.30;100.00;96873.13;5037354;28;20136;-64
2021/09/12 02:15:07;;;;;;;5.88;4.00;;;;;;;14.25;100.00;96865.22;5033776;28;20037;-63
2021/09/12 02:17:32;;;;;;;6.10;3.55;;;;;;;14.15;100.00;96863.97;5036935;28;20561;-64
2021/09/12 02:19:58;;;;;;;7.10;4.10;;;;;;;14.15;100.00;96863.97;5034514;28;20043;-64
2021/09/12 02:22:23;;;;;;;5.95;3.95;;;;;;;14.20;100.00;96866.38;5013706;28;21036;-61
2021/09/12 02:24:48;;;;;;;8.45;3.40;;;;;;;14.23;100.00;96862.06;5023062;28;20448;-63
2021/09/12 02:27:14;;;;;;;8.55;3.92;;;;;;;14.21;100.00;96867.19;5017500;28;20037;-63
2021/09/12 02:29:39;;;;;;;7.90;3.55;;;;;;;14.24;100.00;96866.38;5025643;28;20121;-64
2021/09/12 02:32:05;;;;;;;6.20;3.33;;;;;;;14.19;100.00;96864.00;5021277;28;20041;-63
2021/09/12 02:34:30;;;;;;;8.48;4.57;;;;;;;14.03;100.00;96867.09;5023787;28;20042;-64
2021/09/12 02:36:56;;;;;;;7.72;4.38;;;;;;;13.71;100.00;96868.47;5020903;28;20087;-64
2021/09/12 02:39:21;;;;;;;5.30;3.92;;;;;;;13.61;100.00;96863.66;5016009;28;20526;-62
2021/09/12 02:41:47;;;;;;;6.07;3.47;;;;;;;13.68;100.00;96863.72;5022366;28;20192;-64
2021/09/12 02:44:12;;;;;;;6.50;4.10;;;;;;;13.60;100.00;96859.34;5032225;28;20036;-63
2021/09/12 02:46:37;;;;;;;6.32;4.38;;;;;;;13.47;100.00;96861.63;5033417;28;20045;-65
2021/09/12 02:49:03;;;;;;;12.07;5.72;;;;;;;13.46;100.00;96862.78;5017782;28;20054;-60
2021/09/12 02:51:28;;;;;;;8.75;4.55;;;;;;;13.49;100.00;96855.72;5017034;28;20507;-65
2021/09/12 02:53:54;;;;;;;7.25;4.38;;;;;;;13.40;100.00;96858.81;5020332;28;20549;-63
2021/09/12 02:56:19;;;;;;;8.35;4.95;;;;;;;13.36;100.00;96856.03;5009793;28;20180;-62
2021/09/12 02:58:45;;;;;;;7.50;4.30;;;;;;;13.23;100.00;96846.44;5022507;28;20045;-63
2021/09/12 03:01:10;;;;;;;6.88;4.97;;;;;;;13.20;100.00;96853.50;5014208;28;20068;-63
2021/09/12 03:03:35;;;;;;;7.70;4.60;;;;;;;13.28;100.00;96848.06;5021851;28;20048;-65
2021/09/12 03:06:01;;;;;;;5.93;3.95;;;;;;;13.39;100.00;96849.75;5020408;28;20041;-64
2021/09/12 03:08:26;;;;;;;12.38;4.60;;;;;;;13.58;100.00;96851.47;5016153;28;20041;-64
2021/09/12 03:10:52;;;;;;;6.65;4.18;;;;;;;13.64;100.00;96851.91;5021265;28;20049;-62
2021/09/12 03:13:18;;;;;;;7.85;3.80;;;;;;;13.68;100.00;96855.44;5014156;28;20081;-63
2021/09/12 03:15:44;;;;;;;6.60;3.78;;;;;;;13.72;100.00;96858.22;5019844;28;20183;-63
2021/09/12 03:18:09;;;;;;;8.23;3.83;;;;;;;13.78;100.00;96853.97;5015900;28;20041;-63
2021/09/12 03:20:35;;;;;;;7.43;3.58;;;;;;;13.83;100.00;96853.59;5018748;28;20572;-63
2021/09/12 03:23:00;;;;;;;6.97;3.22;;;;;;;13.85;100.00;96853.22;5021520;28;20069;-63
2021/09/12 03:25:26;;;;;;;5.00;3.53;;;;;;;13.81;100.00;96855.16;5015183;28;20042;-63
2021/09/12 03:27:52;;;;;;;3.97;2.63;;;;;;;13.72;100.00;96852.72;5023274;28;20494;-62
2021/09/12 03:30:18;;;;;;;4.25;3.03;;;;;;;13.79;100.00;96855.53;5027407;28;20713;-62
2021/09/12 03:32:43;;;;;;;5.03;3.22;;;;;;;13.62;100.00;96856.22;5028666;28;20069;-62
2021/09/12 03:35:09;;;;;;;6.38;3.72;;;;;;;13.68;100.00;96847.19;5028266;28;20040;-63
2021/09/12 03:37:35;;;;;;;8.23;3.70;;;;;;;13.42;100.00;96850.19;5040701;28;20056;-62
2021/09/12 03:40:00;;;;;;;5.40;3.28;;;;;;;13.52;100.00;96850.25;5022159;28;20041;-64
2021/09/12 03:42:26;;;;;;;5.18;3.45;;;;;;;13.44;100.00;96853.34;5013956;28;20538;-63
2021/09/12 03:44:51;;;;;;;4.75;3.53;;;;;;;13.25;100.00;96851.56;5029289;28;20049;-63
2021/09/12 03:47:16;;;;;;;7.30;4.15;;;;;;;13.23;100.00;96848.41;5033735;28;20049;-61
2021/09/12 03:49:42;;;;;;;5.20;3.08;;;;;;;13.21;100.00;96848.78;5034048;28;20049;-62
2021/09/12 03:52:08;;;;;;;7.32;4.03;;;;;;;13.29;100.00;96853.19;5024973;28;20494;-63
2021/09/12 03:54:33;;;;;;;4.60;3.13;;;;;;;13.24;100.00;96839.78;5034455;28;20053;-62
2021/09/12 03:56:59;;;;;;;10.13;4.68;;;;;;;13.22;100.00;96841.31;5027323;28;20033;-64
2021/09/12 03:59:24;;;;;;;8.98;3.67;;;;;;;13.32;100.00;96838.69;5024890;28;20045;-64
2021/09/12 04:01:50;;;;;;;6.45;3.70;;;;;;;13.38;100.00;96841.91;5040784;28;20037;-63
2021/09/12 04:04:15;;;;;;;5.47;4.00;;;;;;;13.44;100.00;96834.84;5021299;28;20056;-61
2021/09/12 04:06:41;;;;;;;9.30;4.30;;;;;;;13.45;100.00;96835.63;5024110;28;20041;-64
2021/09/12 04:09:07;;;;;;;6.32;4.07;;;;;;;13.53;100.00;96827.06;5011477;28;20138;-62
2021/09/12 04:11:32;;;;;;;9.00;4.25;;;;;;;13.66;100.00;96835.00;5026912;28;20078;-63
2021/09/12 04:13:57;;;;;;;4.82;3.60;;;;;;;13.49;100.00;96836.47;5028948;28;20037;-64
2021/09/12 04:16:23;;;;;;;7.25;3.28;;;;;;;13.47;100.00;96833.28;5038672;28;20067;-64
2021/09/12 04:18:48;;;;;;;9.23;3.92;;;;;;;13.47;100.00;96834.09;5037406;28;20072;-62
2021/09/12 04:21:14;;;;;;;6.05;3.35;;;;;;;13.41;100.00;96832.09;5018921;28;20486;-63
2021/09/12 04:23:39;;;;;;;6.15;3.42;;;;;;;13.27;100.00;96843.72;5028219;28;20490;-64
2021/09/12 04:26:04;;;;;;;8.77;4.38;;;;;;;13.06;100.00;96836.88;5017607;28;20107;-65
2021/09/12 04:28:31;;;;;;;5.47;3.72;;;;;;;12.98;100.00;96837.97;5025274;28;20048;-62
2021/09/12 04:30:56;;;;;;;7.47;3.70;;;;;;;12.85;100.00;96831.97;5029378;28;20099;-62
2021/09/12 04:33:22;;;;;;;6.63;3.80;;;;;;;12.79;100.00;96831.53;5018604;28;20931;-62
2021/09/12 04:35:47;;;;;;;6.00;3.55;;;;;;;12.71;100.00;96835.41;5027856;28;20077;-64
2021/09/12 04:38:12;;;;;;;7.38;3.60;;;;;;;12.78;100.00;96832.72;5016210;28;20041;-64
2021/09/12 04:40:38;;;;;;;9.00;3.75;;;;;;;12.91;100.00;96826.91;5021156;28;20124;-64
2021/09/12 04:43:03;;;;;;;10.27;4.13;;;;;;;12.95;100.00;96836.78;5044762;28;20048;-63
2021/09/12 04:45:29;;;;;;;9.50;3.20;;;;;;;12.98;100.00;96846.22;5050587;28;20078;-62
2021/09/12 04:47:54;;;;;;;5.38;3.25;;;;;;;12.91;100.00;96846.16;5034878;28;20042;-64
2021/09/12 04:50:19;;;;;;;6.70;3.90;;;;;;;12.78;100.00;96840.16;5043450;28;20038;-64
2021/09/12 04:52:47;;;;;;;7.88;3.33;;;;;;;12.84;100.00;96846.09;5035140;28;20417;-65
2021/09/12 04:55:12;;;;;;;6.03;3.47;;;;;;;12.82;100.00;96843.75;5033636;28;20073;-65
2021/09/12 04:57:37;;;;;;;4.10;3.05;;;;;;;12.69;100.00;96845.16;5037541;28;20061;-64
2021/09/12 05:00:04;;;;;;;5.50;3.47;;;;;;;12.62;100.00;96854.94;5026797;28;20037;-63
2021/09/12 05:02:29;;;;;;;5.22;3.35;;;;;;;12.51;100.00;96862.25;5028251;28;20178;-62
2021/09/12 05:04:55;;;;;;;5.15;3.70;;;;;;;12.47;100.00;96857.88;5030220;28;20136;-62
2021/09/12 05:07:20;;;;;;;8.02;4.10;;;;;;;12.41;100.00;96857.44;5026211;28;20029;-64
2021/09/12 05:09:45;;;;;;;6.07;4.05;;;;;;;12.18;100.00;96865.78;5033450;28;20039;-65
2021/09/12 05:12:11;;;;;;;13.60;4.18;;;;;;;12.05;100.00;96860.53;5015084;28;20363;-63
2021/09/12 05:14:36;;;;;;;5.53;3.50;;;;;;;11.90;100.00;96866.97;5028477;28;20051;-64
2021/09/12 05:17:02;;;;;;;14.57;3.95;;;;;;;11.80;100.00;96871.13;5019820;28;20044;-63
2021/09/12 05:19:27;;;;;;;5.20;3.67;;;;;;;11.97;100.00;96874.53;5021500;28;20054;-62
2021/09/12 05:21:53;;;;;;;4.32;3.20;;;;;;;12.26;100.00;96872.16;5034012;28;20144;-64
2021/09/12 05:24:18;;;;;;;4.78;3.13;;;;;;;12.63;100.00;96861.97;5023699;28;20131;-64
2021/09/12 05:26:43;;;;;;;4.57;3.60;;;;;;;12.94;100.00;96862.69;5028318;28;20049;-63
2021/09/12 05:29:09;;;;;;;8.23;2.80;;;;;;;13.00;100.00;96863.16;5031959;28;20128;-63
2021/09/12 05:31:34;;;;;;;6.70;2.97;;;;;;;12.97;100.00;96859.19;5030016;28;20077;-63
2021/09/12 05:34:00;;;;;;;4.38;2.88;;;;;;;12.91;100.00;96860.72;5039088;28;20041;-64
2021/09/12 05:36:25;;;;;;;3.95;2.83;;;;;;;13.00;100.00;96860.41;5034841;28;20076;-63
2021/09/12 05:38:50;;;;;;;4.85;2.72;;;;;;;13.39;100.00;96866.25;5025744;28;20109;-64
2021/09/12 05:41:16;;;;;;;3.92;2.60;;;;;;;13.89;100.00;96862.28;5017011;28;20050;-64
2021/09/12 05:43:42;;;;;;;4.20;2.70;;;;;;;14.48;100.00;96868.47;5031344;28;20047;-63
2021/09/12 05:46:07;;;;;;;4.32;3.13;;;;;;;14.57;99.25;96867.28;5014341;28;20500;-62
2021/09/12 05:48:32;;;;;;;5.97;3.30;;;;;;;14.20;100.00;96868.34;5032908;28;20128;-62
2021/09/12 05:50:58;;;;;;;5.97;2.90;;;;;;;14.20;100.00;96865.59;5031729;28;20053;-63
2021/09/12 05:53:24;;;;;;;7.15;3.30;;;;;;;15.24;99.81;96872.19;5026231;28;20702;-65
2021/09/12 05:55:50;;;;;;;4.75;2.83;;;;;;;16.34;90.49;96872.47;5030416;28;20037;-64
2021/09/12 05:58:15;;;;;;;5.22;2.58;;;;;;;16.88;86.41;96875.00;5032695;28;20441;-64
2021/09/12 06:00:41;;;;;;;3.38;2.55;;;;;;;17.12;84.47;96875.25;5035735;28;20053;-65
2021/09/12 06:03:06;;;;;;;8.98;2.75;;;;;;;17.13;84.19;96874.06;5022831;28;20045;-63
2021/09/12 06:05:32;;;;;;;7.15;3.63;;;;;;;17.13;83.19;96885.16;5030312;28;20049;-63
2021/09/12 06:07:57;;;;;;;3.85;2.22;;;;;;;17.17;84.63;96875.63;5033486;28;20071;-65
2021/09/12 06:10:23;;;;;;;5.80;3.00;;;;;;;16.97;86.03;96885.63;5021588;28;20049;-65
2021/09/12 06:12:48;;;;;;;4.32;2.72;;;;;;;17.08;86.73;96878.03;5028749;28;20092;-64
2021/09/12 06:15:13;;;;;;;5.30;2.65;;;;;;;17.11;86.55;96880.00;5025432;28;20041;-64
2021/09/12 06:17:39;;;;;;;6.78;2.80;;;;;;;16.94;88.00;96876.19;5027349;28;20379;-64
2021/09/12 06:20:05;;;;;;;4.07;2.95;;;;;;;16.67;89.47;96886.94;5031344;28;20048;-64
2021/09/12 06:22:31;;;;;;;4.30;2.85;;;;;;;16.50;91.25;96876.75;5030404;28;20041;-64
2021/09/12 06:24:56;;;;;;;7.53;3.35;;;;;;;16.41;91.52;96883.50;5011141;28;20056;-64
2021/09/12 06:27:22;;;;;;;4.93;3.22;;;;;;;16.08;94.47;96884.00;5024387;28;20053;-63
2021/09/12 06:29:47;;;;;;;4.72;3.38;;;;;;;16.03;95.30;96877.69;5023464;28;20046;-65
2021/09/12 06:32:12;;;;;;;5.68;3.58;;;;;;;16.03;95.76;96874.16;5023646;28;20433;-64
2021/09/12 06:34:38;;;;;;;4.70;3.65;;;;;;;15.92;98.18;96879.69;5026195;28;20049;-64
2021/09/12 06:37:04;;;;;;;5.50;3.33;;;;;;;16.02;98.90;96880.84;5025358;28;20046;-63
2021/09/12 06:39:29;;;;;;;6.35;3.28;;;;;;;16.24;97.40;96887.09;5029256;28;20063;-64
2021/09/12 06:41:55;;;;;;;6.20;4.00;;;;;;;16.48;95.77;96890.19;5033154;28;20063;-64
2021/09/12 06:44:20;;;;;;;6.55;3.83;;;;;;;16.61;94.70;96894.88;5026894;28;20037;-65
2021/09/12 06:46:46;;;;;;;5.22;3.15;;;;;;;16.67;94.65;96894.44;5042797;28;20605;-64
2021/09/12 06:49:12;;;;;;;7.00;3.53;;;;;;;16.72;94.53;96892.06;5020137;28;20083;-65
2021/09/12 06:51:38;;;;;;;5.18;3.40;;;;;;;16.73;94.18;96899.16;5022570;28;20470;-62
2021/09/12 06:54:03;;;;;;;5.45;3.38;;;;;;;16.66;93.46;96901.97;5023186;28;20073;-65
2021/09/12 06:56:29;;;;;;;6.50;3.33;;;;;;;16.59;94.64;96900.00;5027454;28;20049;-63
2021/09/12 06:58:54;;;;;;;4.97;3.15;;;;;;;16.68;94.43;96893.28;5027059;28;20045;-64
2021/09/12 07:01:20;;;;;;;6.75;3.53;;;;;;;16.81;94.46;96889.63;5018921;28;20056;-64
2021/09/12 07:03:45;;;;;;;4.13;2.60;;;;;;;16.96;94.25;96889.59;5035510;28;20095;-64
2021/09/12 07:06:10;;;;;;;5.15;3.45;;;;;;;17.10;93.80;96886.72;5035473;28;20468;-65
2021/09/12 07:08:37;;;;;;;4.20;2.80;;;;;;;17.17;93.60;96888.66;5042878;28;20037;-65
2021/09/12 07:11:03;;;;;;;5.30;3.20;;;;;;;17.26;93.54;96885.44;5031892;28;20060;-63
2021/09/12 07:13:28;;;;;;;6.18;3.45;;;;;;;17.34;93.08;96892.50;5026261;28;20523;-63
2021/09/12 07:15:54;;;;;;;6.03;3.72;;;;;;;17.47;92.49;96885.28;5024847;28;20048;-63
2021/09/12 07:18:19;;;;;;;6.35;4.15;;;;;;;17.20;94.32;96885.88;5026645;28;20532;-65
2021/09/12 07:20:44;;;;;;;6.75;3.63;;;;;;;17.15;94.94;96886.31;5027550;28;20053;-65
2021/09/12 07:23:10;;;;;;;8.32;4.05;;;;;;;17.44;93.55;96888.88;5031973;28;20056;-64
2021/09/12 07:25:35;;;;;;;5.90;3.72;;;;;;;17.71;91.90;96877.94;5039980;28;20399;-65
2021/09/12 07:28:04;;;;;;;5.65;3.97;;;;;;;17.96;89.74;96888.06;5027996;28;20056;-65
2021/09/12 07:30:29;;;;;;;5.60;3.28;;;;;;;18.01;90.29;96884.84;5034370;28;20046;-65
2021/09/12 07:32:55;;;;;;;6.32;3.70;;;;;;;17.84;91.76;96885.75;5037239;28;20033;-66
2021/09/12 07:35:20;;;;;;;5.78;3.38;;;;;;;17.94;91.81;96887.69;5030178;28;20049;-65
2021/09/12 07:37:45;;;;;;;6.10;3.65;;;;;;;18.25;91.31;96894.09;5037109;28;20108;-62
2021/09/12 07:40:11;;;;;;;5.40;3.70;;;;;;;18.32;90.32;96893.22;5037250;28;20040;-65
2021/09/12 07:42:37;;;;;;;5.28;3.63;;;;;;;18.21;90.62;96893.34;5048864;28;20089;-63
2021/09/12 07:45:03;;;;;;;12.70;4.32;;;;;;;18.27;90.88;96896.44;5039439;28;20067;-63
2021/09/12 07:47:28;;;;;;;7.25;3.40;;;;;;;18.37;90.33;96898.31;5034064;28;20064;-63
2021/09/12 07:49:54;;;;;;;4.22;3.22;;;;;;;18.61;89.03;96895.66;5024029;28;20037;-64
2021/09/12 07:52:19;;;;;;;7.78;5.20;;;;;;;18.47;89.20;96891.84;5029219;28;20033;-64
2021/09/12 07:54:44;;;;;;;6.65;3.97;;;;;;;18.61;88.98;96893.66;5029976;28;20045;-64
2021/09/12 07:57:10;;;;;;;5.00;3.10;;;;;;;19.06;86.63;96890.72;5013114;28;20045;-63
2021/09/12 07:59:35;;;;;;;7.15;3.42;;;;;;;19.25;86.13;96892.06;5028555;28;20045;-63
2021/09/12 08:02:01;;;;;;;9.02;3.97;;;;;;;19.05;86.78;96891.13;5031680;28;20044;-64
2021/09/12 08:04:26;;;;;;;6.85;4.38;;;;;;;19.30;84.72;96896.31;5024889;28;20068;-64
2021/09/12 08:06:51;;;;;;;8.23;4.38;;;;;;;19.44;83.67;96895.34;5029440;28;20041;-65
2021/09/12 08:09:17;;;;;;;6.15;4.43;;;;;;;19.90;81.25;96898.56;5041202;28;20094;-64
2021/09/12 08:11:42;;;;;;;5.40;3.42;;;;;;;20.14;79.93;96902.13;5062114;28;20047;-63
2021/09/12 08:14:07;;;;;;;5.93;3.78;;;;;;;20.43;78.31;96897.59;5029099;28;20057;-65
2021/09/12 08:16:33;;;;;;;6.55;3.97;;;;;;;20.72;76.65;96905.38;5032258;28;20083;-63
2021/09/12 08:18:59;;;;;;;7.28;4.03;;;;;;;21.00;75.21;96908.78;5022972;28;20046;-65
2021/09/12 08:21:24;;;;;;;12.63;5.40;;;;;;;20.69;76.20;96903.47;5027854;28;20099;-64
2021/09/12 08:23:50;;;;;;;9.52;5.35;;;;;;;21.03;74.18;96904.34;5024255;28;20141;-63
2021/09/12 08:26:16;;;;;;;10.23;6.00;;;;;;;19.83;78.09;96903.06;5014728;28;20042;-63
2021/09/12 08:28:41;;;;;;;10.55;6.38;;;;;;;19.20;82.53;96903.63;5027774;28;20096;-64
2021/09/12 08:31:06;;;;;;;8.88;5.50;;;;;;;19.55;82.01;96903.50;5024485;28;20059;-63
2021/09/12 08:33:32;;;;;;;8.15;5.43;;;;;;;19.83;81.08;96914.16;5025997;28;20072;-63
2021/09/12 08:35:57;;;;;;;9.27;5.80;;;;;;;20.42;76.15;96920.28;5025997;28;20132;-64
2021/09/12 08:38:23;;;;;;;11.68;5.32;;;;;;;20.59;75.16;96913.56;5020629;28;20426;-62
2021/09/12 08:40:56;;;;;;;9.95;5.32;;;;;;;20.62;75.49;96911.97;5028627;28;20047;-64
2021/09/12 08:43:21;;;;;;;12.05;5.93;;;;;;;19.21;82.37;96918.28;5018101;28;20130;-63
2021/09/12 08:45:48;;;;;;;11.73;6.43;;;;;;;19.07;83.76;96914.50;5031937;28;20053;-62
2021/09/12 08:48:14;;;;;;;12.60;6.65;;;;;;;19.06;83.34;96920.47;5023453;28;20033;-64
2021/09/12 08:50:39;;;;;;;10.07;5.85;;;;;;;19.61;80.93;96926.84;5023555;28;20046;-64
2021/09/12 08:53:04;;;;;;;9.90;5.75;;;;;;;20.75;76.62;96924.03;5018316;28;20077;-64
2021/09/12 08:55:30;;;;;;;8.52;5.63;;;;;;;22.04;69.93;96914.72;5027726;28;20133;-64
2021/09/12 08:57:58;;;;;;;10.13;5.78;;;;;;;20.30;75.96;96913.34;5031765;28;20053;-62
2021/09/12 09:00:27;;;;;;;11.05;6.97;;;;;;;20.16;78.17;96919.94;5027500;28;21039;-64
2021/09/12 09:02:57;;;;;;;8.80;5.57;;;;;;;21.58;72.00;96925.03;5026510;28;20037;-62
2021/09/12 09:05:37;;;;;;;10.57;6.70;;;;;;;20.73;74.27;96929.22;4991169;28;1082707;-63
2021/09/12 09:08:12;;;;;;;12.07;6.32;;;;;;;19.64;79.65;96923.19;5023816;28;20065;-63
2021/09/12 09:10:45;;;;;;;9.52;6.25;;;;;;;19.81;79.30;96921.38;5028764;28;20049;-63
2021/09/12 09:13:34;;;;;;;12.52;6.22;;;;;;;20.17;77.76;96915.19;5024157;28;20044;-62
2021/09/12 09:16:01;;;;;;;7.63;4.10;;;;;;;21.12;75.70;96912.91;5036598;28;20045;-64
2021/09/12 09:18:37;;;;;;;9.60;5.82;;;;;;;22.10;70.26;96910.19;5029534;28;20051;-64
2021/09/12 09:21:24;;;;;;;8.43;5.68;;;;;;;22.39;69.14;96898.28;5021104;28;20056;-64
2021/09/12 09:24:05;;;;;;;8.65;5.95;;;;;;;21.83;71.40;96904.91;5027610;28;20044;-65
2021/09/12 09:26:30;;;;;;;8.98;5.53;;;;;;;22.14;69.63;96891.34;5033771;28;20045;-63
2021/09/12 09:28:55;;;;;;;12.27;5.63;;;;;;;21.40;70.27;96894.75;5031010;28;20044;-63
2021/09/12 09:31:24;;;;;;;8.57;5.05;;;;;;;20.91;72.14;96892.69;5028486;28;20068;-63
2021/09/12 09:33:49;;;;;;;11.68;6.07;;;;;;;22.96;65.66;96884.72;5036423;28;20068;-62
2021/09/12 09:36:17;;;;;;;12.00;7.15;;;;;;;21.20;70.60;96890.03;5028233;28;20451;-64
2021/09/12 09:38:47;;;;;;;10.48;6.03;;;;;;;21.24;73.52;96884.38;5043500;28;20083;-63
2021/09/12 09:41:15;;;;;;;11.70;7.30;;;;;;;22.19;69.22;96886.47;5023219;28;20720;-63
2021/09/12 09:43:50;;;;;;;10.38;6.35;;;;;;;23.70;62.12;96888.41;5038226;28;20041;-63
2021/09/12 09:46:37;;;;;;;9.68;6.07;;;;;;;23.26;63.56;96877.03;5022087;28;20524;-63
2021/09/12 09:49:26;;;;;;;10.07;5.10;;;;;;;24.34;59.68;96874.25;5028391;28;20613;-63
2021/09/12 09:51:55;;;;;;;;;;;;;;;23.30;62.09;96866.53;5025230;28;20045;-64
2021/09/12 09:54:23;;;;;;;10.02;6.40;;;;;;;23.32;61.87;96875.25;5024408;28;19965;-64
2021/09/12 09:56:50;;;;;;;8.02;5.43;;;;;;;23.02;64.55;96874.53;5035482;28;20037;-65
2021/09/12 09:59:18;;;;;;;9.40;5.60;;;;;;;22.89;64.75;96880.13;5032358;28;20072;-63
2021/09/12 10:01:49;;;;;;;10.38;6.88;;;;;;;20.13;75.66;96879.09;5043348;28;20072;-63
2021/09/12 10:04:16;;;;;;;10.32;7.22;;;;;;;20.82;74.18;96884.13;5036629;28;20049;-64
2021/09/12 10:06:41;;;;;;;9.90;5.63;;;;;;;21.77;70.40;96865.63;5050466;28;20460;-62
2021/09/12 10:09:15;;;;;;;7.50;5.15;;;;;;;22.85;65.44;96868.28;5031460;28;20045;-61
2021/09/12 10:11:46;;;;;;;9.73;5.30;;;;;;;22.47;66.56;96874.56;5027139;28;20412;-63
2021/09/12 10:14:16;;;;;;;7.97;6.00;;;;;;;22.01;68.99;96870.22;5023143;28;20394;-62
2021/09/12 10:16:43;;;;;;;10.52;6.65;;;;;;;21.26;71.54;96879.16;5032331;28;20121;-64
2021/09/12 10:19:08;;;;;;;10.13;6.13;;;;;;;20.97;72.14;96873.47;5031418;28;20402;-65
2021/09/12 10:21:34;;;;;;;9.07;5.47;;;;;;;20.86;72.77;96872.91;5043892;28;20106;-68
2021/09/12 10:24:02;;;;;;;9.65;5.45;;;;;;;21.01;72.59;96871.38;5041604;28;20045;-66
2021/09/12 10:26:37;;;;;;;8.93;5.75;;;;;;;20.58;74.05;96872.25;5032251;28;20049;-65
2021/09/12 10:29:03;;;;;;;9.60;6.70;;;;;;;20.13;76.73;96875.53;5020752;28;20048;-66
2021/09/12 10:31:36;;;;;;;13.23;6.15;;;;;;;19.86;77.97;96871.66;5037551;28;20049;-65
2021/09/12 10:34:08;;;;;;;11.93;6.10;;;;;;;19.72;78.53;96871.09;5001540;28;20045;-66
2021/09/12 10:36:34;;;;;;;12.20;6.43;;;;;;;19.93;75.65;96869.94;5001223;28;20037;-66
2021/09/12 10:39:25;;;;;;;10.60;6.18;;;;;;;19.99;75.96;96868.25;5033725;28;20095;-66
2021/09/12 10:42:09;;;;;;;10.65;7.05;;;;;;;20.02;76.63;96865.41;5033829;28;20128;-65
2021/09/12 10:44:35;;;;;;;9.73;6.78;;;;;;;19.97;76.65;96868.66;5034111;28;20068;-66
2021/09/12 10:47:07;;;;;;;8.35;5.95;;;;;;;20.22;75.33;96870.19;5042226;28;20065;-65
2021/09/12 10:49:33;;;;;;;8.95;6.40;;;;;;;20.74;74.00;96863.22;5038687;28;20049;-64
2021/09/12 10:51:59;;;;;;;9.35;6.13;;;;;;;20.03;75.08;96863.41;5032655;28;20404;-67
2021/09/12 10:54:24;;;;;;;10.25;6.53;;;;;;;20.24;75.28;96862.22;5028007;28;20562;-64
2021/09/12 10:57:06;;;;;;;10.80;6.18;;;;;;;21.41;71.50;96859.31;5042627;28;20041;-66
2021/09/12 10:59:32;;;;;;;9.05;6.07;;;;;;;21.36;69.86;96853.06;5028224;28;20045;-65
2021/09/12 11:01:58;;;;;;;9.20;5.80;;;;;;;21.84;67.17;96855.50;5030782;28;20048;-66
2021/09/12 11:04:32;;;;;;;10.65;5.90;;;;;;;22.36;64.57;96862.88;5017563;28;20591;-66
2021/09/12 11:07:03;;;;;;;13.05;5.65;;;;;;;22.04;66.01;96852.56;5023227;28;20033;-66
2021/09/12 11:09:29;;;;;;;10.57;6.30;;;;;;;21.57;67.92;96848.19;5023619;28;20128;-66
2021/09/12 11:11:57;;;;;;;9.63;6.00;;;;;;;20.78;70.50;96850.03;5032659;28;20061;-66
2021/09/12 11:14:23;;;;;;;10.65;6.40;;;;;;;21.28;70.06;96845.31;5021712;28;20131;-65
2021/09/12 11:16:49;;;;;;;10.35;5.95;;;;;;;20.99;71.12;96846.78;5021264;28;20041;-65
2021/09/12 11:19:14;;;;;;;8.75;5.88;;;;;;;22.10;67.08;96842.47;5022423;28;20405;-64
2021/09/12 11:21:51;;;;;;;7.70;5.75;;;;;;;21.99;67.05;96839.97;5024833;28;20114;-65
2021/09/12 11:24:22;;;;;;;8.07;5.40;;;;;;;23.31;61.55;96842.94;5018561;28;20470;-65
2021/09/12 11:26:54;;;;;;;8.27;5.63;;;;;;;23.56;61.10;96841.34;5029646;28;20128;-67